sensor_id;sensor_type;location;lat;lon;timestamp;P1;durP1;ratioP1;P2;durP2;ratioP2
77160;SDS011;66135;0.000;0.000;2023-02-07T00:00:32;5.93;;;2.42;;
77160;SDS011;66135;0.000;0.000;2023-02-07T00:02:57;4.55;;;1.88;;
77160;SDS011;66135;0.000;0.000;2023-02-07T00:05:23;4.22;;;2.10;;
77160;SDS011;66135;0.000;0.000;2023-02-07T00:07:48;5.85;;;2.65;;
77160;SDS011;66135;0.000;0.000;2023-02-07T00:10:14;3.20;;;1.70;;
77160;SDS011;66135;0.000;0.000;2023-02-07T00:12:40;3.78;;;1.65;;
77160;SDS011;66135;0.000;0.000;2023-02-07T00:15:05;4.20;;;2.05;;
77160;SDS011;66135;0.000;0.000;2023-02-07T00:17:31;4.22;;;1.85;;
77160;SDS011;66135;0.000;0.000;2023-02-07T00:19:57;4.53;;;1.80;;
77160;SDS011;66135;0.000;0.000;2023-02-07T00:22:22;4.50;;;2.60;;
77160;SDS011;66135;0.000;0.000;2023-02-07T00:24:47;3.53;;;2.05;;
77160;SDS011;66135;0.000;0.000;2023-02-07T00:27:13;3.55;;;1.98;;
77160;SDS011;66135;0.000;0.000;2023-02-07T00:29:38;3.83;;;2.03;;
77160;SDS011;66135;0.000;0.000;2023-02-07T00:32:04;3.58;;;1.52;;
77160;SDS011;66135;0.000;0.000;2023-02-07T00:34:29;4.45;;;1.63;;
77160;SDS011;66135;0.000;0.000;2023-02-07T00:36:55;3.78;;;1.70;;
77160;SDS011;66135;0.000;0.000;2023-02-07T00:39:21;2.75;;;1.70;;
77160;SDS011;66135;0.000;0.000;2023-02-07T00:41:46;3.95;;;1.70;;
77160;SDS011;66135;0.000;0.000;2023-02-07T00:44:12;3.83;;;1.33;;
77160;SDS011;66135;0.000;0.000;2023-02-07T00:46:38;3.38;;;1.63;;
77160;SDS011;66135;0.000;0.000;2023-02-07T00:49:04;3.95;;;1.92;;
77160;SDS011;66135;0.000;0.000;2023-02-07T00:51:30;4.63;;;2.38;;
77160;SDS011;66135;0.000;0.000;2023-02-07T00:53:56;3.58;;;1.67;;
77160;SDS011;66135;0.000;0.000;2023-02-07T00:56:23;3.35;;;1.70;;
77160;SDS011;66135;0.000;0.000;2023-02-07T00:58:49;6.30;;;2.15;;
77160;SDS011;66135;0.000;0.000;2023-02-07T01:01:15;3.60;;;1.67;;
77160;SDS011;66135;0.000;0.000;2023-02-07T01:03:41;3.95;;;1.67;;
77160;SDS011;66135;0.000;0.000;2023-02-07T01:06:06;3.00;;;2.13;;
77160;SDS011;66135;0.000;0.000;2023-02-07T01:08:32;5.13;;;1.92;;
77160;SDS011;66135;0.000;0.000;2023-02-07T01:11:01;3.05;;;1.42;;
77160;SDS011;66135;0.000;0.000;2023-02-07T01:13:28;3.67;;;1.77;;
77160;SDS011;66135;0.000;0.000;2023-02-07T01:15:54;4.78;;;1.83;;
77160;SDS011;66135;0.000;0.000;2023-02-07T01:18:20;3.35;;;1.35;;
77160;SDS011;66135;0.000;0.000;2023-02-07T01:20:45;3.85;;;1.75;;
77160;SDS011;66135;0.000;0.000;2023-02-07T01:23:11;5.35;;;2.03;;
77160;SDS011;66135;0.000;0.000;2023-02-07T01:25:37;3.58;;;1.58;;
77160;SDS011;66135;0.000;0.000;2023-02-07T01:28:03;3.85;;;1.75;;
77160;SDS011;66135;0.000;0.000;2023-02-07T01:30:29;3.25;;;1.52;;
77160;SDS011;66135;0.000;0.000;2023-02-07T01:32:54;3.33;;;1.33;;
77160;SDS011;66135;0.000;0.000;2023-02-07T01:35:19;3.25;;;1.73;;
77160;SDS011;66135;0.000;0.000;2023-02-07T01:37:45;3.40;;;1.33;;
77160;SDS011;66135;0.000;0.000;2023-02-07T01:40:11;3.15;;;1.63;;
77160;SDS011;66135;0.000;0.000;2023-02-07T01:42:37;3.33;;;1.60;;
77160;SDS011;66135;0.000;0.000;2023-02-07T01:45:04;3.08;;;1.50;;
77160;SDS011;66135;0.000;0.000;2023-02-07T01:47:54;6.00;;;2.10;;
77160;SDS011;66135;0.000;0.000;2023-02-07T01:50:26;3.92;;;1.70;;
77160;SDS011;66135;0.000;0.000;2023-02-07T01:52:52;2.40;;;1.50;;
77160;SDS011;66135;0.000;0.000;2023-02-07T01:55:25;4.60;;;1.70;;
77160;SDS011;66135;0.000;0.000;2023-02-07T01:57:55;2.53;;;1.48;;
77160;SDS011;66135;0.000;0.000;2023-02-07T02:00:21;3.33;;;1.20;;
77160;SDS011;66135;0.000;0.000;2023-02-07T02:02:47;4.78;;;1.50;;
77160;SDS011;66135;0.000;0.000;2023-02-07T02:05:13;2.75;;;2.05;;
77160;SDS011;66135;0.000;0.000;2023-02-07T02:07:40;3.40;;;1.30;;
77160;SDS011;66135;0.000;0.000;2023-02-07T02:12:50;3.33;;;1.08;;
77160;SDS011;66135;0.000;0.000;2023-02-07T02:15:31;3.60;;;1.85;;
77160;SDS011;66135;0.000;0.000;2023-02-07T02:18:01;4.75;;;1.90;;
77160;SDS011;66135;0.000;0.000;2023-02-07T02:25:47;4.50;;;1.73;;
77160;SDS011;66135;0.000;0.000;2023-02-07T02:31:31;2.90;;;1.70;;
77160;SDS011;66135;0.000;0.000;2023-02-07T02:34:16;2.42;;;1.27;;
77160;SDS011;66135;0.000;0.000;2023-02-07T02:36:51;3.03;;;1.20;;
77160;SDS011;66135;0.000;0.000;2023-02-07T02:39:31;3.38;;;1.08;;
77160;SDS011;66135;0.000;0.000;2023-02-07T02:45:18;3.70;;;1.50;;
77160;SDS011;66135;0.000;0.000;2023-02-07T02:47:49;3.55;;;1.67;;
77160;SDS011;66135;0.000;0.000;2023-02-07T02:50:20;3.47;;;1.35;;
77160;SDS011;66135;0.000;0.000;2023-02-07T02:52:48;2.67;;;1.20;;
77160;SDS011;66135;0.000;0.000;2023-02-07T02:55:13;2.25;;;1.45;;
77160;SDS011;66135;0.000;0.000;2023-02-07T03:00:28;3.70;;;1.17;;
77160;SDS011;66135;0.000;0.000;2023-02-07T03:03:16;3.50;;;1.10;;
77160;SDS011;66135;0.000;0.000;2023-02-07T03:11:16;2.58;;;1.50;;
77160;SDS011;66135;0.000;0.000;2023-02-07T03:19:37;4.03;;;1.73;;
77160;SDS011;66135;0.000;0.000;2023-02-07T03:22:09;3.88;;;1.20;;
77160;SDS011;66135;0.000;0.000;2023-02-07T03:24:38;4.10;;;1.35;;
77160;SDS011;66135;0.000;0.000;2023-02-07T03:27:10;3.47;;;1.48;;
77160;SDS011;66135;0.000;0.000;2023-02-07T03:29:40;3.45;;;1.33;;
77160;SDS011;66135;0.000;0.000;2023-02-07T03:32:09;3.03;;;1.65;;
77160;SDS011;66135;0.000;0.000;2023-02-07T03:34:49;3.50;;;1.67;;
77160;SDS011;66135;0.000;0.000;2023-02-07T03:37:34;5.15;;;1.60;;
77160;SDS011;66135;0.000;0.000;2023-02-07T03:40:03;4.82;;;1.50;;
77160;SDS011;66135;0.000;0.000;2023-02-07T03:42:39;3.40;;;1.55;;
77160;SDS011;66135;0.000;0.000;2023-02-07T03:45:14;4.65;;;1.75;;
77160;SDS011;66135;0.000;0.000;2023-02-07T03:47:43;2.53;;;1.17;;
77160;SDS011;66135;0.000;0.000;2023-02-07T03:50:08;4.63;;;2.03;;
77160;SDS011;66135;0.000;0.000;2023-02-07T03:52:34;3.17;;;1.65;;
77160;SDS011;66135;0.000;0.000;2023-02-07T03:55:00;3.50;;;1.48;;
77160;SDS011;66135;0.000;0.000;2023-02-07T03:57:25;2.92;;;1.38;;
77160;SDS011;66135;0.000;0.000;2023-02-07T03:59:50;4.22;;;1.48;;
77160;SDS011;66135;0.000;0.000;2023-02-07T04:02:16;4.05;;;1.88;;
77160;SDS011;66135;0.000;0.000;2023-02-07T04:04:42;2.75;;;1.65;;
77160;SDS011;66135;0.000;0.000;2023-02-07T04:07:08;4.18;;;2.13;;
77160;SDS011;66135;0.000;0.000;2023-02-07T04:09:34;3.53;;;1.42;;
77160;SDS011;66135;0.000;0.000;2023-02-07T04:11:59;3.40;;;1.40;;
77160;SDS011;66135;0.000;0.000;2023-02-07T04:14:25;4.35;;;1.92;;
77160;SDS011;66135;0.000;0.000;2023-02-07T04:16:50;2.75;;;1.83;;
77160;SDS011;66135;0.000;0.000;2023-02-07T04:19:16;2.60;;;1.25;;
77160;SDS011;66135;0.000;0.000;2023-02-07T04:21:41;3.08;;;1.48;;
77160;SDS011;66135;0.000;0.000;2023-02-07T04:24:07;3.67;;;1.67;;
77160;SDS011;66135;0.000;0.000;2023-02-07T04:26:33;4.28;;;2.03;;
77160;SDS011;66135;0.000;0.000;2023-02-07T04:28:59;4.80;;;1.60;;
77160;SDS011;66135;0.000;0.000;2023-02-07T04:31:25;5.05;;;1.60;;
77160;SDS011;66135;0.000;0.000;2023-02-07T04:33:51;2.90;;;1.52;;
77160;SDS011;66135;0.000;0.000;2023-02-07T04:36:16;2.83;;;1.80;;
77160;SDS011;66135;0.000;0.000;2023-02-07T04:38:42;4.05;;;1.58;;
77160;SDS011;66135;0.000;0.000;2023-02-07T04:41:07;2.75;;;1.60;;
77160;SDS011;66135;0.000;0.000;2023-02-07T04:43:33;3.17;;;1.85;;
77160;SDS011;66135;0.000;0.000;2023-02-07T04:46:01;3.28;;;2.08;;
77160;SDS011;66135;0.000;0.000;2023-02-07T04:48:27;3.05;;;1.67;;
77160;SDS011;66135;0.000;0.000;2023-02-07T04:50:53;4.00;;;1.75;;
77160;SDS011;66135;0.000;0.000;2023-02-07T04:53:19;3.97;;;1.63;;
77160;SDS011;66135;0.000;0.000;2023-02-07T04:55:47;2.63;;;1.70;;
77160;SDS011;66135;0.000;0.000;2023-02-07T04:58:13;3.63;;;1.80;;
77160;SDS011;66135;0.000;0.000;2023-02-07T05:00:39;3.75;;;1.85;;
77160;SDS011;66135;0.000;0.000;2023-02-07T05:03:05;3.80;;;1.75;;
77160;SDS011;66135;0.000;0.000;2023-02-07T05:05:30;3.08;;;1.70;;
77160;SDS011;66135;0.000;0.000;2023-02-07T05:07:55;4.78;;;1.88;;
77160;SDS011;66135;0.000;0.000;2023-02-07T05:10:21;3.22;;;1.15;;
77160;SDS011;66135;0.000;0.000;2023-02-07T05:12:46;2.75;;;1.42;;
77160;SDS011;66135;0.000;0.000;2023-02-07T05:15:12;4.03;;;1.93;;
77160;SDS011;66135;0.000;0.000;2023-02-07T05:17:37;3.42;;;1.27;;
77160;SDS011;66135;0.000;0.000;2023-02-07T05:20:03;4.65;;;2.30;;
77160;SDS011;66135;0.000;0.000;2023-02-07T05:22:29;3.60;;;1.88;;
77160;SDS011;66135;0.000;0.000;2023-02-07T05:24:55;3.63;;;1.67;;
77160;SDS011;66135;0.000;0.000;2023-02-07T05:27:20;4.05;;;2.30;;
77160;SDS011;66135;0.000;0.000;2023-02-07T05:29:46;3.97;;;1.67;;
77160;SDS011;66135;0.000;0.000;2023-02-07T05:32:12;4.40;;;2.65;;
77160;SDS011;66135;0.000;0.000;2023-02-07T05:34:56;3.65;;;1.55;;
77160;SDS011;66135;0.000;0.000;2023-02-07T05:37:22;4.55;;;1.98;;
77160;SDS011;66135;0.000;0.000;2023-02-07T05:39:47;5.22;;;2.25;;
77160;SDS011;66135;0.000;0.000;2023-02-07T05:42:12;4.20;;;1.88;;
77160;SDS011;66135;0.000;0.000;2023-02-07T05:44:38;4.40;;;1.98;;
77160;SDS011;66135;0.000;0.000;2023-02-07T05:47:03;5.90;;;2.10;;
77160;SDS011;66135;0.000;0.000;2023-02-07T05:49:29;4.57;;;2.33;;
77160;SDS011;66135;0.000;0.000;2023-02-07T05:54:20;3.57;;;1.83;;
77160;SDS011;66135;0.000;0.000;2023-02-07T05:56:46;4.65;;;2.13;;
77160;SDS011;66135;0.000;0.000;2023-02-07T05:59:11;4.32;;;2.25;;
77160;SDS011;66135;0.000;0.000;2023-02-07T06:01:36;4.82;;;2.67;;
77160;SDS011;66135;0.000;0.000;2023-02-07T06:04:02;4.78;;;2.17;;
77160;SDS011;66135;0.000;0.000;2023-02-07T06:06:27;3.30;;;2.33;;
77160;SDS011;66135;0.000;0.000;2023-02-07T06:08:52;3.42;;;2.13;;
77160;SDS011;66135;0.000;0.000;2023-02-07T06:11:18;4.40;;;2.03;;
77160;SDS011;66135;0.000;0.000;2023-02-07T06:13:43;3.30;;;1.95;;
77160;SDS011;66135;0.000;0.000;2023-02-07T06:16:09;3.25;;;1.50;;
77160;SDS011;66135;0.000;0.000;2023-02-07T06:18:35;4.28;;;1.83;;
77160;SDS011;66135;0.000;0.000;2023-02-07T06:21:01;5.05;;;2.50;;
77160;SDS011;66135;0.000;0.000;2023-02-07T06:23:26;4.45;;;1.83;;
77160;SDS011;66135;0.000;0.000;2023-02-07T06:25:52;3.70;;;1.73;;
77160;SDS011;66135;0.000;0.000;2023-02-07T06:28:17;5.22;;;2.25;;
77160;SDS011;66135;0.000;0.000;2023-02-07T06:30:42;5.03;;;2.17;;
77160;SDS011;66135;0.000;0.000;2023-02-07T06:33:08;4.85;;;2.03;;
77160;SDS011;66135;0.000;0.000;2023-02-07T06:35:33;4.30;;;2.10;;
77160;SDS011;66135;0.000;0.000;2023-02-07T06:37:59;3.90;;;2.08;;
77160;SDS011;66135;0.000;0.000;2023-02-07T06:40:24;5.55;;;2.05;;
77160;SDS011;66135;0.000;0.000;2023-02-07T06:42:49;5.30;;;2.05;;
77160;SDS011;66135;0.000;0.000;2023-02-07T06:45:15;4.45;;;1.83;;
77160;SDS011;66135;0.000;0.000;2023-02-07T06:47:40;3.10;;;1.63;;
77160;SDS011;66135;0.000;0.000;2023-02-07T06:50:06;3.20;;;1.67;;
77160;SDS011;66135;0.000;0.000;2023-02-07T06:52:31;5.78;;;2.05;;
77160;SDS011;66135;0.000;0.000;2023-02-07T06:54:56;3.65;;;2.20;;
77160;SDS011;66135;0.000;0.000;2023-02-07T06:57:22;4.43;;;1.83;;
77160;SDS011;66135;0.000;0.000;2023-02-07T06:59:47;3.75;;;1.63;;
77160;SDS011;66135;0.000;0.000;2023-02-07T07:02:13;4.20;;;1.90;;
77160;SDS011;66135;0.000;0.000;2023-02-07T07:04:38;3.83;;;2.00;;
77160;SDS011;66135;0.000;0.000;2023-02-07T07:07:04;4.68;;;2.15;;
77160;SDS011;66135;0.000;0.000;2023-02-07T07:09:29;4.97;;;2.03;;
77160;SDS011;66135;0.000;0.000;2023-02-07T07:11:55;5.57;;;2.15;;
77160;SDS011;66135;0.000;0.000;2023-02-07T07:14:20;3.65;;;2.05;;
77160;SDS011;66135;0.000;0.000;2023-02-07T07:16:46;3.97;;;1.83;;
77160;SDS011;66135;0.000;0.000;2023-02-07T07:19:11;4.47;;;2.10;;
77160;SDS011;66135;0.000;0.000;2023-02-07T07:21:37;3.90;;;2.08;;
77160;SDS011;66135;0.000;0.000;2023-02-07T07:24:03;4.90;;;3.15;;
77160;SDS011;66135;0.000;0.000;2023-02-07T07:26:28;5.55;;;2.88;;
77160;SDS011;66135;0.000;0.000;2023-02-07T07:28:54;6.80;;;2.45;;
77160;SDS011;66135;0.000;0.000;2023-02-07T07:31:24;3.90;;;2.80;;
77160;SDS011;66135;0.000;0.000;2023-02-07T07:33:51;4.57;;;2.80;;
77160;SDS011;66135;0.000;0.000;2023-02-07T07:36:18;4.22;;;2.67;;
77160;SDS011;66135;0.000;0.000;2023-02-07T07:38:44;3.20;;;2.03;;
77160;SDS011;66135;0.000;0.000;2023-02-07T07:41:09;3.95;;;2.20;;
77160;SDS011;66135;0.000;0.000;2023-02-07T07:43:35;4.28;;;2.80;;
77160;SDS011;66135;0.000;0.000;2023-02-07T07:46:00;6.07;;;3.58;;
77160;SDS011;66135;0.000;0.000;2023-02-07T07:48:25;5.05;;;2.90;;
77160;SDS011;66135;0.000;0.000;2023-02-07T07:50:51;4.93;;;3.05;;
77160;SDS011;66135;0.000;0.000;2023-02-07T07:53:17;5.05;;;3.00;;
77160;SDS011;66135;0.000;0.000;2023-02-07T07:58:19;5.43;;;2.75;;
77160;SDS011;66135;0.000;0.000;2023-02-07T08:00:46;4.03;;;2.45;;
77160;SDS011;66135;0.000;0.000;2023-02-07T08:03:12;4.80;;;2.53;;
77160;SDS011;66135;0.000;0.000;2023-02-07T08:05:38;5.60;;;3.22;;
77160;SDS011;66135;0.000;0.000;2023-02-07T08:08:04;6.68;;;4.03;;
77160;SDS011;66135;0.000;0.000;2023-02-07T08:10:30;5.30;;;3.05;;
77160;SDS011;66135;0.000;0.000;2023-02-07T08:12:56;6.03;;;3.03;;
77160;SDS011;66135;0.000;0.000;2023-02-07T08:15:22;3.88;;;2.70;;
77160;SDS011;66135;0.000;0.000;2023-02-07T08:17:48;5.10;;;2.92;;
77160;SDS011;66135;0.000;0.000;2023-02-07T08:20:14;6.03;;;3.45;;
77160;SDS011;66135;0.000;0.000;2023-02-07T08:22:39;6.55;;;3.47;;
77160;SDS011;66135;0.000;0.000;2023-02-07T08:25:05;5.93;;;2.75;;
77160;SDS011;66135;0.000;0.000;2023-02-07T08:27:30;4.72;;;2.70;;
77160;SDS011;66135;0.000;0.000;2023-02-07T08:29:56;6.05;;;2.85;;
77160;SDS011;66135;0.000;0.000;2023-02-07T08:32:21;4.35;;;2.63;;
77160;SDS011;66135;0.000;0.000;2023-02-07T08:34:47;4.72;;;2.95;;
77160;SDS011;66135;0.000;0.000;2023-02-07T08:37:12;5.47;;;2.92;;
77160;SDS011;66135;0.000;0.000;2023-02-07T08:39:38;5.38;;;3.08;;
77160;SDS011;66135;0.000;0.000;2023-02-07T08:42:03;7.13;;;2.70;;
77160;SDS011;66135;0.000;0.000;2023-02-07T08:44:32;5.95;;;2.80;;
77160;SDS011;66135;0.000;0.000;2023-02-07T08:46:57;7.00;;;3.42;;
77160;SDS011;66135;0.000;0.000;2023-02-07T08:49:23;7.07;;;3.58;;
77160;SDS011;66135;0.000;0.000;2023-02-07T08:51:48;4.57;;;2.65;;
77160;SDS011;66135;0.000;0.000;2023-02-07T08:54:14;4.65;;;2.75;;
77160;SDS011;66135;0.000;0.000;2023-02-07T08:56:39;5.50;;;2.97;;
77160;SDS011;66135;0.000;0.000;2023-02-07T08:59:05;4.70;;;2.67;;
77160;SDS011;66135;0.000;0.000;2023-02-07T09:01:30;5.53;;;3.05;;
77160;SDS011;66135;0.000;0.000;2023-02-07T09:03:56;4.32;;;2.75;;
77160;SDS011;66135;0.000;0.000;2023-02-07T09:06:22;6.88;;;3.28;;
77160;SDS011;66135;0.000;0.000;2023-02-07T09:08:49;6.85;;;3.22;;
77160;SDS011;66135;0.000;0.000;2023-02-07T09:11:15;7.35;;;3.72;;
77160;SDS011;66135;0.000;0.000;2023-02-07T09:13:41;6.72;;;3.60;;
77160;SDS011;66135;0.000;0.000;2023-02-07T09:16:09;4.93;;;2.97;;
77160;SDS011;66135;0.000;0.000;2023-02-07T09:18:35;5.60;;;2.63;;
77160;SDS011;66135;0.000;0.000;2023-02-07T09:21:01;8.20;;;3.65;;
77160;SDS011;66135;0.000;0.000;2023-02-07T09:23:27;8.98;;;2.58;;
77160;SDS011;66135;0.000;0.000;2023-02-07T09:25:53;4.22;;;2.08;;
77160;SDS011;66135;0.000;0.000;2023-02-07T09:28:19;5.32;;;2.83;;
77160;SDS011;66135;0.000;0.000;2023-02-07T09:30:48;5.70;;;2.25;;
77160;SDS011;66135;0.000;0.000;2023-02-07T09:33:14;5.68;;;2.88;;
77160;SDS011;66135;0.000;0.000;2023-02-07T09:35:40;7.50;;;2.65;;
77160;SDS011;66135;0.000;0.000;2023-02-07T09:38:08;6.70;;;2.63;;
77160;SDS011;66135;0.000;0.000;2023-02-07T09:40:37;10.50;;;3.10;;
77160;SDS011;66135;0.000;0.000;2023-02-07T09:43:16;9.93;;;3.47;;
77160;SDS011;66135;0.000;0.000;2023-02-07T09:45:55;7.57;;;2.75;;
77160;SDS011;66135;0.000;0.000;2023-02-07T09:51:19;8.70;;;2.65;;
77160;SDS011;66135;0.000;0.000;2023-02-07T09:53:58;8.80;;;2.33;;
77160;SDS011;66135;0.000;0.000;2023-02-07T09:56:27;7.80;;;3.15;;
77160;SDS011;66135;0.000;0.000;2023-02-07T09:59:05;8.02;;;3.03;;
77160;SDS011;66135;0.000;0.000;2023-02-07T10:06:45;8.35;;;2.42;;
77160;SDS011;66135;0.000;0.000;2023-02-07T10:09:15;7.35;;;2.80;;
77160;SDS011;66135;0.000;0.000;2023-02-07T10:14:52;9.00;;;3.08;;
77160;SDS011;66135;0.000;0.000;2023-02-07T10:25:52;4.88;;;2.30;;
77160;SDS011;66135;0.000;0.000;2023-02-07T10:30:51;5.22;;;1.90;;
77160;SDS011;66135;0.000;0.000;2023-02-07T10:33:28;7.13;;;2.17;;
77160;SDS011;66135;0.000;0.000;2023-02-07T10:35:56;5.05;;;2.50;;
77160;SDS011;66135;0.000;0.000;2023-02-07T10:41:02;4.28;;;2.20;;
77160;SDS011;66135;0.000;0.000;2023-02-07T10:43:34;5.43;;;2.42;;
77160;SDS011;66135;0.000;0.000;2023-02-07T10:46:03;5.13;;;2.35;;
77160;SDS011;66135;0.000;0.000;2023-02-07T10:48:33;5.35;;;1.65;;
77160;SDS011;66135;0.000;0.000;2023-02-07T10:51:01;5.07;;;2.65;;
77160;SDS011;66135;0.000;0.000;2023-02-07T10:54:11;3.55;;;1.58;;
77160;SDS011;66135;0.000;0.000;2023-02-07T10:56:28;6.43;;;1.92;;
77160;SDS011;66135;0.000;0.000;2023-02-07T10:58:56;5.97;;;1.55;;
77160;SDS011;66135;0.000;0.000;2023-02-07T11:01:23;3.63;;;2.25;;
77160;SDS011;66135;0.000;0.000;2023-02-07T11:03:50;3.67;;;1.80;;
77160;SDS011;66135;0.000;0.000;2023-02-07T11:06:51;4.70;;;1.77;;
77160;SDS011;66135;0.000;0.000;2023-02-07T11:09:09;4.78;;;1.60;;
77160;SDS011;66135;0.000;0.000;2023-02-07T11:11:52;4.75;;;1.80;;
77160;SDS011;66135;0.000;0.000;2023-02-07T11:14:22;4.70;;;1.73;;
77160;SDS011;66135;0.000;0.000;2023-02-07T11:16:53;5.05;;;1.80;;
77160;SDS011;66135;0.000;0.000;2023-02-07T11:19:22;3.00;;;1.52;;
77160;SDS011;66135;0.000;0.000;2023-02-07T11:21:50;3.47;;;1.58;;
77160;SDS011;66135;0.000;0.000;2023-02-07T11:24:19;3.40;;;1.50;;
77160;SDS011;66135;0.000;0.000;2023-02-07T11:29:58;3.00;;;1.48;;
77160;SDS011;66135;0.000;0.000;2023-02-07T11:32:28;4.28;;;1.05;;
77160;SDS011;66135;0.000;0.000;2023-02-07T11:34:59;5.50;;;1.60;;
77160;SDS011;66135;0.000;0.000;2023-02-07T11:45:32;4.15;;;1.33;;
77160;SDS011;66135;0.000;0.000;2023-02-07T11:47:58;3.67;;;1.30;;
77160;SDS011;66135;0.000;0.000;2023-02-07T11:50:35;5.25;;;1.02;;
77160;SDS011;66135;0.000;0.000;2023-02-07T11:53:03;2.95;;;1.55;;
77160;SDS011;66135;0.000;0.000;2023-02-07T12:01:04;2.20;;;1.30;;
77160;SDS011;66135;0.000;0.000;2023-02-07T12:03:32;2.75;;;1.20;;
77160;SDS011;66135;0.000;0.000;2023-02-07T12:06:05;2.75;;;1.00;;
77160;SDS011;66135;0.000;0.000;2023-02-07T12:08:36;2.38;;;1.10;;
77160;SDS011;66135;0.000;0.000;2023-02-07T12:11:06;3.88;;;1.45;;
77160;SDS011;66135;0.000;0.000;2023-02-07T12:13:44;2.40;;;1.23;;
77160;SDS011;66135;0.000;0.000;2023-02-07T12:16:16;2.10;;;0.95;;
77160;SDS011;66135;0.000;0.000;2023-02-07T12:18:54;2.63;;;0.93;;
77160;SDS011;66135;0.000;0.000;2023-02-07T12:21:35;4.07;;;1.20;;
77160;SDS011;66135;0.000;0.000;2023-02-07T12:24:54;1.70;;;0.98;;
77160;SDS011;66135;0.000;0.000;2023-02-07T12:27:13;3.75;;;1.35;;
77160;SDS011;66135;0.000;0.000;2023-02-07T12:29:57;2.22;;;0.80;;
77160;SDS011;66135;0.000;0.000;2023-02-07T12:40:55;2.10;;;1.00;;
77160;SDS011;66135;0.000;0.000;2023-02-07T12:43:35;2.25;;;1.02;;
77160;SDS011;66135;0.000;0.000;2023-02-07T12:49:05;9.82;;;2.10;;
77160;SDS011;66135;0.000;0.000;2023-02-07T12:54:56;33.00;;;4.13;;
77160;SDS011;66135;0.000;0.000;2023-02-07T12:57:38;39.15;;;6.05;;
77160;SDS011;66135;0.000;0.000;2023-02-07T13:00:15;44.15;;;7.18;;
77160;SDS011;66135;0.000;0.000;2023-02-07T13:03:04;31.23;;;6.07;;
77160;SDS011;66135;0.000;0.000;2023-02-07T13:11:23;36.50;;;6.22;;
77160;SDS011;66135;0.000;0.000;2023-02-07T13:19:21;35.42;;;5.90;;
77160;SDS011;66135;0.000;0.000;2023-02-07T13:24:20;36.38;;;7.50;;
77160;SDS011;66135;0.000;0.000;2023-02-07T13:26:50;33.13;;;5.53;;
77160;SDS011;66135;0.000;0.000;2023-02-07T13:29:18;25.20;;;6.03;;
77160;SDS011;66135;0.000;0.000;2023-02-07T13:31:50;38.80;;;6.30;;
77160;SDS011;66135;0.000;0.000;2023-02-07T13:34:43;24.48;;;4.13;;
77160;SDS011;66135;0.000;0.000;2023-02-07T13:37:11;28.58;;;4.55;;
77160;SDS011;66135;0.000;0.000;2023-02-07T13:48:04;25.23;;;4.70;;
77160;SDS011;66135;0.000;0.000;2023-02-07T13:55:54;27.73;;;4.80;;
77160;SDS011;66135;0.000;0.000;2023-02-07T14:01:26;28.80;;;4.13;;
77160;SDS011;66135;0.000;0.000;2023-02-07T14:04:03;21.83;;;4.30;;
77160;SDS011;66135;0.000;0.000;2023-02-07T14:06:34;21.73;;;3.67;;
77160;SDS011;66135;0.000;0.000;2023-02-07T14:11:40;16.85;;;3.58;;
77160;SDS011;66135;0.000;0.000;2023-02-07T14:17:12;18.92;;;3.33;;
77160;SDS011;66135;0.000;0.000;2023-02-07T14:19:51;19.55;;;3.67;;
77160;SDS011;66135;0.000;0.000;2023-02-07T14:24:50;17.45;;;3.42;;
77160;SDS011;66135;0.000;0.000;2023-02-07T14:27:30;22.17;;;3.85;;
77160;SDS011;66135;0.000;0.000;2023-02-07T14:30:20;13.43;;;2.63;;
77160;SDS011;66135;0.000;0.000;2023-02-07T14:35:33;12.82;;;2.78;;
77160;SDS011;66135;0.000;0.000;2023-02-07T14:40:33;14.63;;;3.13;;
77160;SDS011;66135;0.000;0.000;2023-02-07T14:43:15;11.63;;;2.88;;
77160;SDS011;66135;0.000;0.000;2023-02-07T14:51:28;13.70;;;2.47;;
77160;SDS011;66135;0.000;0.000;2023-02-07T14:54:21;19.13;;;3.40;;
77160;SDS011;66135;0.000;0.000;2023-02-07T14:57:27;14.07;;;2.53;;
77160;SDS011;66135;0.000;0.000;2023-02-07T15:02:26;14.68;;;2.28;;
77160;SDS011;66135;0.000;0.000;2023-02-07T15:04:53;10.77;;;2.55;;
77160;SDS011;66135;0.000;0.000;2023-02-07T15:07:19;12.25;;;2.20;;
77160;SDS011;66135;0.000;0.000;2023-02-07T15:09:44;16.67;;;2.75;;
77160;SDS011;66135;0.000;0.000;2023-02-07T15:12:11;14.95;;;3.22;;
77160;SDS011;66135;0.000;0.000;2023-02-07T15:14:48;7.88;;;2.00;;
77160;SDS011;66135;0.000;0.000;2023-02-07T15:17:20;9.18;;;1.58;;
77160;SDS011;66135;0.000;0.000;2023-02-07T15:19:46;9.77;;;2.58;;
77160;SDS011;66135;0.000;0.000;2023-02-07T15:22:19;13.55;;;2.13;;
77160;SDS011;66135;0.000;0.000;2023-02-07T15:24:49;10.88;;;1.90;;
77160;SDS011;66135;0.000;0.000;2023-02-07T15:27:21;14.85;;;2.15;;
77160;SDS011;66135;0.000;0.000;2023-02-07T15:29:54;8.98;;;1.85;;
77160;SDS011;66135;0.000;0.000;2023-02-07T15:32:39;8.93;;;2.45;;
77160;SDS011;66135;0.000;0.000;2023-02-07T15:35:15;9.05;;;2.83;;
77160;SDS011;66135;0.000;0.000;2023-02-07T15:37:43;8.98;;;2.00;;
77160;SDS011;66135;0.000;0.000;2023-02-07T15:40:15;12.65;;;1.52;;
77160;SDS011;66135;0.000;0.000;2023-02-07T15:42:54;7.82;;;1.35;;
77160;SDS011;66135;0.000;0.000;2023-02-07T15:45:25;8.48;;;1.67;;
77160;SDS011;66135;0.000;0.000;2023-02-07T15:48:03;7.95;;;1.58;;
77160;SDS011;66135;0.000;0.000;2023-02-07T15:50:34;10.18;;;1.70;;
77160;SDS011;66135;0.000;0.000;2023-02-07T15:53:02;5.18;;;1.65;;
77160;SDS011;66135;0.000;0.000;2023-02-07T15:55:43;6.90;;;1.30;;
77160;SDS011;66135;0.000;0.000;2023-02-07T15:58:27;9.80;;;1.70;;
77160;SDS011;66135;0.000;0.000;2023-02-07T16:01:01;5.57;;;1.00;;
77160;SDS011;66135;0.000;0.000;2023-02-07T16:03:35;8.95;;;1.58;;
77160;SDS011;66135;0.000;0.000;2023-02-07T16:08:51;9.88;;;1.83;;
77160;SDS011;66135;0.000;0.000;2023-02-07T16:16:37;8.32;;;1.27;;
77160;SDS011;66135;0.000;0.000;2023-02-07T16:21:38;4.28;;;1.30;;
77160;SDS011;66135;0.000;0.000;2023-02-07T16:24:07;4.10;;;1.10;;
77160;SDS011;66135;0.000;0.000;2023-02-07T16:26:38;4.97;;;0.93;;
77160;SDS011;66135;0.000;0.000;2023-02-07T16:29:05;3.28;;;0.70;;
77160;SDS011;66135;0.000;0.000;2023-02-07T16:31:31;5.47;;;1.20;;
77160;SDS011;66135;0.000;0.000;2023-02-07T16:33:57;4.70;;;0.93;;
77160;SDS011;66135;0.000;0.000;2023-02-07T16:36:23;6.88;;;0.93;;
77160;SDS011;66135;0.000;0.000;2023-02-07T16:38:49;3.78;;;0.90;;
77160;SDS011;66135;0.000;0.000;2023-02-07T16:41:25;5.05;;;0.68;;
77160;SDS011;66135;0.000;0.000;2023-02-07T16:43:55;3.70;;;0.98;;
77160;SDS011;66135;0.000;0.000;2023-02-07T16:46:22;3.50;;;0.63;;
77160;SDS011;66135;0.000;0.000;2023-02-07T16:48:48;5.22;;;0.75;;
77160;SDS011;66135;0.000;0.000;2023-02-07T16:51:14;5.30;;;0.77;;
77160;SDS011;66135;0.000;0.000;2023-02-07T16:53:39;3.85;;;0.95;;
77160;SDS011;66135;0.000;0.000;2023-02-07T16:56:05;6.38;;;0.90;;
77160;SDS011;66135;0.000;0.000;2023-02-07T16:58:31;5.53;;;0.75;;
77160;SDS011;66135;0.000;0.000;2023-02-07T17:00:57;3.95;;;0.90;;
77160;SDS011;66135;0.000;0.000;2023-02-07T17:03:24;2.92;;;0.52;;
77160;SDS011;66135;0.000;0.000;2023-02-07T17:05:49;3.25;;;0.82;;
77160;SDS011;66135;0.000;0.000;2023-02-07T17:08:16;7.57;;;1.08;;
77160;SDS011;66135;0.000;0.000;2023-02-07T17:10:48;2.80;;;0.73;;
77160;SDS011;66135;0.000;0.000;2023-02-07T17:13:17;4.28;;;0.52;;
77160;SDS011;66135;0.000;0.000;2023-02-07T17:15:43;4.85;;;0.93;;
77160;SDS011;66135;0.000;0.000;2023-02-07T17:18:10;4.03;;;0.90;;
77160;SDS011;66135;0.000;0.000;2023-02-07T17:20:37;2.60;;;0.77;;
77160;SDS011;66135;0.000;0.000;2023-02-07T17:23:03;5.95;;;1.20;;
77160;SDS011;66135;0.000;0.000;2023-02-07T17:25:29;5.88;;;1.38;;
77160;SDS011;66135;0.000;0.000;2023-02-07T17:27:55;5.10;;;1.35;;
77160;SDS011;66135;0.000;0.000;2023-02-07T17:30:24;4.30;;;1.25;;
77160;SDS011;66135;0.000;0.000;2023-02-07T17:32:54;3.75;;;0.85;;
77160;SDS011;66135;0.000;0.000;2023-02-07T17:35:21;2.40;;;0.75;;
77160;SDS011;66135;0.000;0.000;2023-02-07T17:37:47;3.33;;;0.98;;
77160;SDS011;66135;0.000;0.000;2023-02-07T17:42:46;2.78;;;0.73;;
77160;SDS011;66135;0.000;0.000;2023-02-07T17:45:11;4.22;;;0.98;;